sensor_id;sensor_type;location;lat;lon;timestamp;P1;durP1;ratioP1;P2;durP2;ratioP2
11394;SDS011;5753;54.402;10.220;2023-10-19T00:00:55;3.67;;;3.35;;
11394;SDS011;5753;54.402;10.220;2023-10-19T00:03:22;3.60;;;3.03;;
11394;SDS011;5753;54.402;10.220;2023-10-19T00:05:49;7.75;;;3.35;;
11394;SDS011;5753;54.402;10.220;2023-10-19T00:08:15;4.32;;;2.95;;
11394;SDS011;5753;54.402;10.220;2023-10-19T00:10:46;3.38;;;2.35;;
11394;SDS011;5753;54.402;10.220;2023-10-19T00:15:45;5.22;;;2.38;;
11394;SDS011;5753;54.402;10.220;2023-10-19T00:18:19;2.45;;;2.22;;
11394;SDS011;5753;54.402;10.220;2023-10-19T00:20:47;4.82;;;2.13;;
11394;SDS011;5753;54.402;10.220;2023-10-19T00:23:19;3.42;;;3.13;;
11394;SDS011;5753;54.402;10.220;2023-10-19T00:26:00;5.22;;;2.33;;
11394;SDS011;5753;54.402;10.220;2023-10-19T00:28:40;10.38;;;3.95;;
11394;SDS011;5753;54.402;10.220;2023-10-19T00:31:09;2.90;;;2.25;;
11394;SDS011;5753;54.402;10.220;2023-10-19T00:33:37;3.45;;;2.50;;
11394;SDS011;5753;54.402;10.220;2023-10-19T00:36:04;5.75;;;3.47;;
11394;SDS011;5753;54.402;10.220;2023-10-19T00:38:34;4.68;;;3.03;;
11394;SDS011;5753;54.402;10.220;2023-10-19T00:41:01;5.88;;;4.32;;
11394;SDS011;5753;54.402;10.220;2023-10-19T00:43:38;5.57;;;2.58;;
11394;SDS011;5753;54.402;10.220;2023-10-19T00:46:15;5.38;;;3.80;;
11394;SDS011;5753;54.402;10.220;2023-10-19T00:48:49;9.50;;;3.88;;
11394;SDS011;5753;54.402;10.220;2023-10-19T00:53:56;7.78;;;3.90;;
11394;SDS011;5753;54.402;10.220;2023-10-19T00:56:36;5.32;;;3.10;;
11394;SDS011;5753;54.402;10.220;2023-10-19T00:59:02;5.57;;;4.05;;
11394;SDS011;5753;54.402;10.220;2023-10-19T01:01:53;9.60;;;5.13;;
11394;SDS011;5753;54.402;10.220;2023-10-19T01:04:22;13.48;;;3.63;;
11394;SDS011;5753;54.402;10.220;2023-10-19T01:06:50;3.90;;;3.50;;
11394;SDS011;5753;54.402;10.220;2023-10-19T01:09:29;5.97;;;3.03;;
11394;SDS011;5753;54.402;10.220;2023-10-19T01:12:00;8.30;;;4.75;;
11394;SDS011;5753;54.402;10.220;2023-10-19T01:20:10;8.02;;;3.45;;
11394;SDS011;5753;54.402;10.220;2023-10-19T01:25:46;7.20;;;2.67;;
11394;SDS011;5753;54.402;10.220;2023-10-19T01:28:19;7.22;;;3.45;;
11394;SDS011;5753;54.402;10.220;2023-10-19T01:30:50;5.28;;;2.47;;
11394;SDS011;5753;54.402;10.220;2023-10-19T01:33:17;5.88;;;3.15;;
11394;SDS011;5753;54.402;10.220;2023-10-19T01:35:43;9.07;;;3.83;;
11394;SDS011;5753;54.402;10.220;2023-10-19T01:38:28;5.75;;;2.95;;
11394;SDS011;5753;54.402;10.220;2023-10-19T01:41:02;4.97;;;3.92;;
11394;SDS011;5753;54.402;10.220;2023-10-19T01:43:39;5.88;;;4.28;;
11394;SDS011;5753;54.402;10.220;2023-10-19T01:46:06;4.95;;;3.58;;
11394;SDS011;5753;54.402;10.220;2023-10-19T01:48:41;6.82;;;4.07;;
11394;SDS011;5753;54.402;10.220;2023-10-19T01:51:11;4.13;;;3.30;;
11394;SDS011;5753;54.402;10.220;2023-10-19T01:53:39;5.60;;;3.55;;
11394;SDS011;5753;54.402;10.220;2023-10-19T01:56:12;12.85;;;4.65;;
11394;SDS011;5753;54.402;10.220;2023-10-19T01:58:42;8.77;;;4.28;;
11394;SDS011;5753;54.402;10.220;2023-10-19T02:01:14;6.25;;;5.13;;
11394;SDS011;5753;54.402;10.220;2023-10-19T02:03:53;6.80;;;5.40;;
11394;SDS011;5753;54.402;10.220;2023-10-19T02:06:23;8.35;;;4.68;;
11394;SDS011;5753;54.402;10.220;2023-10-19T02:09:11;9.55;;;4.88;;
11394;SDS011;5753;54.402;10.220;2023-10-19T02:11:49;4.40;;;3.28;;
11394;SDS011;5753;54.402;10.220;2023-10-19T02:14:18;13.48;;;5.43;;
11394;SDS011;5753;54.402;10.220;2023-10-19T02:16:48;8.05;;;5.63;;
11394;SDS011;5753;54.402;10.220;2023-10-19T02:19:17;5.72;;;4.65;;
11394;SDS011;5753;54.402;10.220;2023-10-19T02:21:45;8.43;;;5.43;;
11394;SDS011;5753;54.402;10.220;2023-10-19T02:24:17;6.45;;;4.53;;
11394;SDS011;5753;54.402;10.220;2023-10-19T02:26:44;9.60;;;5.00;;
11394;SDS011;5753;54.402;10.220;2023-10-19T02:29:12;18.15;;;6.88;;
11394;SDS011;5753;54.402;10.220;2023-10-19T02:31:41;7.10;;;4.65;;
11394;SDS011;5753;54.402;10.220;2023-10-19T02:34:08;10.02;;;6.43;;
11394;SDS011;5753;54.402;10.220;2023-10-19T02:36:36;9.77;;;6.28;;
11394;SDS011;5753;54.402;10.220;2023-10-19T02:39:05;9.68;;;5.68;;
11394;SDS011;5753;54.402;10.220;2023-10-19T02:41:35;7.40;;;6.13;;
11394;SDS011;5753;54.402;10.220;2023-10-19T02:44:08;8.40;;;7.28;;
11394;SDS011;5753;54.402;10.220;2023-10-19T02:46:41;9.95;;;5.95;;
11394;SDS011;5753;54.402;10.220;2023-10-19T02:49:08;11.77;;;7.30;;
11394;SDS011;5753;54.402;10.220;2023-10-19T02:51:41;9.93;;;7.32;;
11394;SDS011;5753;54.402;10.220;2023-10-19T02:54:15;9.05;;;6.32;;
11394;SDS011;5753;54.402;10.220;2023-10-19T02:56:44;13.40;;;6.03;;
11394;SDS011;5753;54.402;10.220;2023-10-19T02:59:18;8.25;;;6.00;;
11394;SDS011;5753;54.402;10.220;2023-10-19T03:01:48;12.25;;;7.35;;
11394;SDS011;5753;54.402;10.220;2023-10-19T03:04:16;8.63;;;7.25;;
11394;SDS011;5753;54.402;10.220;2023-10-19T03:06:43;11.45;;;7.82;;
11394;SDS011;5753;54.402;10.220;2023-10-19T03:09:09;10.40;;;7.78;;
11394;SDS011;5753;54.402;10.220;2023-10-19T03:11:41;9.27;;;6.57;;
11394;SDS011;5753;54.402;10.220;2023-10-19T03:14:09;10.50;;;5.38;;
11394;SDS011;5753;54.402;10.220;2023-10-19T03:16:37;10.65;;;6.82;;
11394;SDS011;5753;54.402;10.220;2023-10-19T03:19:06;10.05;;;6.18;;
11394;SDS011;5753;54.402;10.220;2023-10-19T03:21:33;10.00;;;7.22;;
11394;SDS011;5753;54.402;10.220;2023-10-19T03:24:06;9.75;;;6.00;;
11394;SDS011;5753;54.402;10.220;2023-10-19T03:26:48;16.05;;;6.57;;
11394;SDS011;5753;54.402;10.220;2023-10-19T03:29:15;9.93;;;6.15;;
11394;SDS011;5753;54.402;10.220;2023-10-19T03:31:47;14.27;;;6.82;;
11394;SDS011;5753;54.402;10.220;2023-10-19T03:34:13;9.88;;;6.15;;
11394;SDS011;5753;54.402;10.220;2023-10-19T03:36:41;8.48;;;6.63;;
11394;SDS011;5753;54.402;10.220;2023-10-19T03:39:08;7.28;;;5.03;;
11394;SDS011;5753;54.402;10.220;2023-10-19T03:41:38;11.00;;;7.18;;
11394;SDS011;5753;54.402;10.220;2023-10-19T03:44:07;9.18;;;6.95;;
11394;SDS011;5753;54.402;10.220;2023-10-19T03:46:49;7.65;;;4.70;;
11394;SDS011;5753;54.402;10.220;2023-10-19T03:52:05;7.47;;;5.68;;
11394;SDS011;5753;54.402;10.220;2023-10-19T03:54:34;9.50;;;6.93;;
11394;SDS011;5753;54.402;10.220;2023-10-19T03:57:07;9.80;;;7.47;;
11394;SDS011;5753;54.402;10.220;2023-10-19T03:59:48;9.18;;;5.55;;
11394;SDS011;5753;54.402;10.220;2023-10-19T04:02:15;18.20;;;7.30;;
11394;SDS011;5753;54.402;10.220;2023-10-19T04:04:48;10.82;;;6.10;;
11394;SDS011;5753;54.402;10.220;2023-10-19T04:07:15;8.10;;;5.45;;
11394;SDS011;5753;54.402;10.220;2023-10-19T04:09:52;10.30;;;7.00;;
11394;SDS011;5753;54.402;10.220;2023-10-19T04:12:31;10.07;;;6.20;;
11394;SDS011;5753;54.402;10.220;2023-10-19T04:15:00;10.65;;;4.70;;
11394;SDS011;5753;54.402;10.220;2023-10-19T04:17:41;14.20;;;6.80;;
11394;SDS011;5753;54.402;10.220;2023-10-19T04:20:08;10.02;;;6.40;;
11394;SDS011;5753;54.402;10.220;2023-10-19T04:22:53;14.15;;;4.95;;
11394;SDS011;5753;54.402;10.220;2023-10-19T04:25:19;8.60;;;6.35;;
11394;SDS011;5753;54.402;10.220;2023-10-19T04:27:50;6.75;;;6.03;;
11394;SDS011;5753;54.402;10.220;2023-10-19T04:30:16;25.60;;;6.75;;
11394;SDS011;5753;54.402;10.220;2023-10-19T04:32:51;8.38;;;5.45;;
11394;SDS011;5753;54.402;10.220;2023-10-19T04:35:18;8.50;;;5.30;;
11394;SDS011;5753;54.402;10.220;2023-10-19T04:37:53;10.68;;;7.07;;
11394;SDS011;5753;54.402;10.220;2023-10-19T04:40:21;7.93;;;5.50;;
11394;SDS011;5753;54.402;10.220;2023-10-19T04:42:49;7.00;;;4.45;;
11394;SDS011;5753;54.402;10.220;2023-10-19T04:45:16;8.90;;;6.20;;
11394;SDS011;5753;54.402;10.220;2023-10-19T04:47:43;13.68;;;8.35;;
11394;SDS011;5753;54.402;10.220;2023-10-19T04:50:09;6.32;;;4.80;;
11394;SDS011;5753;54.402;10.220;2023-10-19T04:52:35;12.00;;;6.75;;
11394;SDS011;5753;54.402;10.220;2023-10-19T04:55:02;9.27;;;6.18;;
11394;SDS011;5753;54.402;10.220;2023-10-19T04:57:29;7.22;;;5.25;;
11394;SDS011;5753;54.402;10.220;2023-10-19T04:59:55;10.95;;;7.18;;
11394;SDS011;5753;54.402;10.220;2023-10-19T05:02:22;8.63;;;5.53;;
11394;SDS011;5753;54.402;10.220;2023-10-19T05:04:48;9.05;;;5.97;;
11394;SDS011;5753;54.402;10.220;2023-10-19T05:07:15;29.40;;;7.05;;
11394;SDS011;5753;54.402;10.220;2023-10-19T05:09:44;13.27;;;5.72;;
11394;SDS011;5753;54.402;10.220;2023-10-19T05:12:11;18.42;;;7.53;;
11394;SDS011;5753;54.402;10.220;2023-10-19T05:14:39;10.07;;;5.75;;
11394;SDS011;5753;54.402;10.220;2023-10-19T05:17:06;6.50;;;5.30;;
11394;SDS011;5753;54.402;10.220;2023-10-19T05:19:37;9.20;;;5.63;;
11394;SDS011;5753;54.402;10.220;2023-10-19T05:22:05;11.98;;;7.20;;
11394;SDS011;5753;54.402;10.220;2023-10-19T05:24:32;9.15;;;5.25;;
11394;SDS011;5753;54.402;10.220;2023-10-19T05:26:58;12.75;;;7.50;;
11394;SDS011;5753;54.402;10.220;2023-10-19T05:29:24;16.38;;;5.35;;
11394;SDS011;5753;54.402;10.220;2023-10-19T05:31:51;11.65;;;5.05;;
11394;SDS011;5753;54.402;10.220;2023-10-19T05:34:23;8.85;;;4.85;;
11394;SDS011;5753;54.402;10.220;2023-10-19T05:36:51;7.45;;;5.30;;
11394;SDS011;5753;54.402;10.220;2023-10-19T05:39:19;17.15;;;8.10;;
11394;SDS011;5753;54.402;10.220;2023-10-19T05:41:45;8.95;;;5.40;;
11394;SDS011;5753;54.402;10.220;2023-10-19T05:44:12;7.78;;;4.55;;
11394;SDS011;5753;54.402;10.220;2023-10-19T05:46:38;4.72;;;4.30;;
11394;SDS011;5753;54.402;10.220;2023-10-19T05:49:05;7.25;;;6.40;;
11394;SDS011;5753;54.402;10.220;2023-10-19T05:51:32;6.15;;;4.05;;
11394;SDS011;5753;54.402;10.220;2023-10-19T05:53:58;9.02;;;7.20;;
11394;SDS011;5753;54.402;10.220;2023-10-19T05:56:28;6.25;;;4.38;;
11394;SDS011;5753;54.402;10.220;2023-10-19T05:58:59;7.68;;;4.47;;
11394;SDS011;5753;54.402;10.220;2023-10-19T06:01:26;14.38;;;5.40;;
11394;SDS011;5753;54.402;10.220;2023-10-19T06:03:52;9.50;;;6.57;;
11394;SDS011;5753;54.402;10.220;2023-10-19T06:06:19;17.30;;;7.13;;
11394;SDS011;5753;54.402;10.220;2023-10-19T06:08:45;8.38;;;5.70;;
11394;SDS011;5753;54.402;10.220;2023-10-19T06:11:11;8.65;;;4.85;;
11394;SDS011;5753;54.402;10.220;2023-10-19T06:13:38;12.20;;;6.35;;
11394;SDS011;5753;54.402;10.220;2023-10-19T06:16:04;5.75;;;5.07;;
11394;SDS011;5753;54.402;10.220;2023-10-19T06:18:30;10.32;;;6.07;;
11394;SDS011;5753;54.402;10.220;2023-10-19T06:20:56;12.27;;;5.30;;
11394;SDS011;5753;54.402;10.220;2023-10-19T06:23:23;8.57;;;5.78;;
11394;SDS011;5753;54.402;10.220;2023-10-19T06:25:49;11.95;;;8.25;;
11394;SDS011;5753;54.402;10.220;2023-10-19T06:28:16;7.70;;;5.63;;
11394;SDS011;5753;54.402;10.220;2023-10-19T06:30:42;8.10;;;5.95;;
11394;SDS011;5753;54.402;10.220;2023-10-19T06:33:10;7.32;;;5.10;;
11394;SDS011;5753;54.402;10.220;2023-10-19T06:35:36;7.93;;;4.75;;
11394;SDS011;5753;54.402;10.220;2023-10-19T06:38:02;6.95;;;4.72;;
11394;SDS011;5753;54.402;10.220;2023-10-19T06:40:29;5.55;;;4.80;;
11394;SDS011;5753;54.402;10.220;2023-10-19T06:42:56;12.93;;;5.18;;
11394;SDS011;5753;54.402;10.220;2023-10-19T06:45:23;14.30;;;4.78;;
11394;SDS011;5753;54.402;10.220;2023-10-19T06:47:55;5.50;;;4.97;;
11394;SDS011;5753;54.402;10.220;2023-10-19T06:50:22;8.90;;;5.22;;
11394;SDS011;5753;54.402;10.220;2023-10-19T06:52:49;8.63;;;4.70;;
11394;SDS011;5753;54.402;10.220;2023-10-19T06:55:17;9.40;;;4.53;;
11394;SDS011;5753;54.402;10.220;2023-10-19T06:57:51;8.52;;;4.75;;
11394;SDS011;5753;54.402;10.220;2023-10-19T07:00:19;7.78;;;4.38;;
11394;SDS011;5753;54.402;10.220;2023-10-19T07:02:47;5.70;;;4.00;;
11394;SDS011;5753;54.402;10.220;2023-10-19T07:05:15;8.60;;;6.05;;
11394;SDS011;5753;54.402;10.220;2023-10-19T07:07:55;7.03;;;5.00;;
11394;SDS011;5753;54.402;10.220;2023-10-19T07:10:22;7.93;;;5.03;;
11394;SDS011;5753;54.402;10.220;2023-10-19T07:12:53;12.07;;;5.90;;
11394;SDS011;5753;54.402;10.220;2023-10-19T07:15:20;8.13;;;5.18;;
11394;SDS011;5753;54.402;10.220;2023-10-19T07:17:47;7.68;;;6.13;;
11394;SDS011;5753;54.402;10.220;2023-10-19T07:20:16;6.45;;;3.75;;
11394;SDS011;5753;54.402;10.220;2023-10-19T07:23:00;5.55;;;4.18;;
11394;SDS011;5753;54.402;10.220;2023-10-19T07:25:47;7.05;;;4.50;;
11394;SDS011;5753;54.402;10.220;2023-10-19T07:28:17;7.68;;;4.75;;
11394;SDS011;5753;54.402;10.220;2023-10-19T07:30:44;11.20;;;5.18;;
11394;SDS011;5753;54.402;10.220;2023-10-19T07:33:16;9.88;;;5.15;;
11394;SDS011;5753;54.402;10.220;2023-10-19T07:35:43;14.70;;;6.63;;
11394;SDS011;5753;54.402;10.220;2023-10-19T07:38:12;10.63;;;5.30;;
11394;SDS011;5753;54.402;10.220;2023-10-19T07:40:39;11.00;;;4.85;;
11394;SDS011;5753;54.402;10.220;2023-10-19T07:43:05;10.98;;;6.55;;
11394;SDS011;5753;54.402;10.220;2023-10-19T07:45:33;8.90;;;5.50;;
11394;SDS011;5753;54.402;10.220;2023-10-19T07:47:59;9.82;;;5.97;;
11394;SDS011;5753;54.402;10.220;2023-10-19T07:50:32;7.70;;;6.25;;
11394;SDS011;5753;54.402;10.220;2023-10-19T07:52:59;11.55;;;6.25;;
11394;SDS011;5753;54.402;10.220;2023-10-19T07:55:25;8.25;;;5.80;;
11394;SDS011;5753;54.402;10.220;2023-10-19T07:57:51;8.25;;;6.45;;
11394;SDS011;5753;54.402;10.220;2023-10-19T08:00:19;5.97;;;4.82;;
11394;SDS011;5753;54.402;10.220;2023-10-19T08:02:46;10.50;;;5.38;;
11394;SDS011;5753;54.402;10.220;2023-10-19T08:05:13;6.50;;;4.20;;
11394;SDS011;5753;54.402;10.220;2023-10-19T08:07:40;9.90;;;5.28;;
11394;SDS011;5753;54.402;10.220;2023-10-19T08:10:11;6.45;;;5.22;;
11394;SDS011;5753;54.402;10.220;2023-10-19T08:12:40;10.13;;;4.45;;
11394;SDS011;5753;54.402;10.220;2023-10-19T08:15:11;10.82;;;7.18;;
11394;SDS011;5753;54.402;10.220;2023-10-19T08:17:39;10.73;;;6.00;;
11394;SDS011;5753;54.402;10.220;2023-10-19T08:20:07;10.30;;;5.30;;
11394;SDS011;5753;54.402;10.220;2023-10-19T08:22:35;5.82;;;4.43;;
11394;SDS011;5753;54.402;10.220;2023-10-19T08:25:02;13.13;;;5.63;;
11394;SDS011;5753;54.402;10.220;2023-10-19T08:27:30;12.98;;;6.35;;
11394;SDS011;5753;54.402;10.220;2023-10-19T08:29:58;8.05;;;6.10;;
11394;SDS011;5753;54.402;10.220;2023-10-19T08:32:24;13.95;;;5.38;;
11394;SDS011;5753;54.402;10.220;2023-10-19T08:34:51;10.57;;;6.15;;
11394;SDS011;5753;54.402;10.220;2023-10-19T08:37:17;10.38;;;4.13;;
11394;SDS011;5753;54.402;10.220;2023-10-19T08:39:44;7.75;;;4.93;;
11394;SDS011;5753;54.402;10.220;2023-10-19T08:42:10;6.28;;;5.55;;
11394;SDS011;5753;54.402;10.220;2023-10-19T08:44:36;10.93;;;4.68;;
11394;SDS011;5753;54.402;10.220;2023-10-19T08:47:03;8.23;;;4.90;;
11394;SDS011;5753;54.402;10.220;2023-10-19T08:49:30;6.10;;;5.15;;
11394;SDS011;5753;54.402;10.220;2023-10-19T08:51:56;7.70;;;6.25;;
11394;SDS011;5753;54.402;10.220;2023-10-19T08:54:25;5.10;;;4.63;;
11394;SDS011;5753;54.402;10.220;2023-10-19T08:56:52;10.02;;;4.97;;
11394;SDS011;5753;54.402;10.220;2023-10-19T08:59:20;7.30;;;5.20;;
11394;SDS011;5753;54.402;10.220;2023-10-19T09:01:46;10.25;;;4.13;;
11394;SDS011;5753;54.402;10.220;2023-10-19T09:04:14;6.25;;;5.57;;
11394;SDS011;5753;54.402;10.220;2023-10-19T09:06:41;8.80;;;5.15;;
11394;SDS011;5753;54.402;10.220;2023-10-19T09:09:11;9.23;;;4.95;;
11394;SDS011;5753;54.402;10.220;2023-10-19T09:11:50;6.93;;;6.07;;
11394;SDS011;5753;54.402;10.220;2023-10-19T09:14:40;6.95;;;6.25;;
11394;SDS011;5753;54.402;10.220;2023-10-19T09:17:08;10.30;;;6.82;;
11394;SDS011;5753;54.402;10.220;2023-10-19T09:22:06;7.82;;;6.85;;
11394;SDS011;5753;54.402;10.220;2023-10-19T09:24:41;10.25;;;5.97;;
11394;SDS011;5753;54.402;10.220;2023-10-19T09:27:08;13.70;;;6.20;;
11394;SDS011;5753;54.402;10.220;2023-10-19T09:29:34;13.02;;;6.05;;
11394;SDS011;5753;54.402;10.220;2023-10-19T09:32:01;7.78;;;5.63;;
11394;SDS011;5753;54.402;10.220;2023-10-19T09:34:30;7.30;;;5.55;;
11394;SDS011;5753;54.402;10.220;2023-10-19T09:36:59;12.40;;;7.45;;
11394;SDS011;5753;54.402;10.220;2023-10-19T09:39:27;15.57;;;7.30;;
11394;SDS011;5753;54.402;10.220;2023-10-19T09:42:05;14.88;;;8.00;;
11394;SDS011;5753;54.402;10.220;2023-10-19T09:44:43;8.52;;;6.05;;
11394;SDS011;5753;54.402;10.220;2023-10-19T09:47:11;13.73;;;6.72;;
11394;SDS011;5753;54.402;10.220;2023-10-19T09:49:40;12.23;;;5.57;;
11394;SDS011;5753;54.402;10.220;2023-10-19T09:52:08;9.32;;;5.50;;
11394;SDS011;5753;54.402;10.220;2023-10-19T09:57:38;16.15;;;7.40;;
11394;SDS011;5753;54.402;10.220;2023-10-19T10:00:17;9.40;;;7.57;;
11394;SDS011;5753;54.402;10.220;2023-10-19T10:02:48;21.20;;;7.10;;
11394;SDS011;5753;54.402;10.220;2023-10-19T10:10:48;9.75;;;6.22;;
11394;SDS011;5753;54.402;10.220;2023-10-19T10:15:55;15.73;;;5.18;;
11394;SDS011;5753;54.402;10.220;2023-10-19T10:18:26;10.45;;;7.35;;
11394;SDS011;5753;54.402;10.220;2023-10-19T10:21:05;11.52;;;6.75;;
11394;SDS011;5753;54.402;10.220;2023-10-19T10:26:14;18.45;;;6.80;;
11394;SDS011;5753;54.402;10.220;2023-10-19T10:29:08;17.38;;;6.43;;
11394;SDS011;5753;54.402;10.220;2023-10-19T10:31:34;6.78;;;5.80;;
11394;SDS011;5753;54.402;10.220;2023-10-19T10:34:06;7.75;;;6.30;;
11394;SDS011;5753;54.402;10.220;2023-10-19T10:39:27;11.40;;;6.10;;
11394;SDS011;5753;54.402;10.220;2023-10-19T10:41:58;10.10;;;6.35;;
11394;SDS011;5753;54.402;10.220;2023-10-19T10:44:47;12.90;;;5.70;;
11394;SDS011;5753;54.402;10.220;2023-10-19T10:47:19;9.32;;;5.65;;
11394;SDS011;5753;54.402;10.220;2023-10-19T10:49:58;8.13;;;4.93;;
11394;SDS011;5753;54.402;10.220;2023-10-19T10:55:21;37.78;;;6.95;;
11394;SDS011;5753;54.402;10.220;2023-10-19T10:57:49;9.63;;;6.15;;
11394;SDS011;5753;54.402;10.220;2023-10-19T11:00:15;13.13;;;5.55;;
11394;SDS011;5753;54.402;10.220;2023-10-19T11:02:43;10.90;;;5.60;;
11394;SDS011;5753;54.402;10.220;2023-10-19T11:05:15;9.07;;;5.20;;
11394;SDS011;5753;54.402;10.220;2023-10-19T11:10:38;12.68;;;6.10;;
11394;SDS011;5753;54.402;10.220;2023-10-19T11:13:08;10.38;;;4.05;;
11394;SDS011;5753;54.402;10.220;2023-10-19T11:15:37;6.25;;;5.00;;
11394;SDS011;5753;54.402;10.220;2023-10-19T11:18:04;7.93;;;4.40;;
11394;SDS011;5753;54.402;10.220;2023-10-19T11:20:34;9.05;;;6.30;;
11394;SDS011;5753;54.402;10.220;2023-10-19T11:23:00;11.38;;;6.55;;
11394;SDS011;5753;54.402;10.220;2023-10-19T11:25:28;18.10;;;6.28;;
11394;SDS011;5753;54.402;10.220;2023-10-19T11:27:55;6.43;;;5.13;;
11394;SDS011;5753;54.402;10.220;2023-10-19T11:30:25;10.27;;;5.70;;
11394;SDS011;5753;54.402;10.220;2023-10-19T11:32:53;14.98;;;6.40;;
11394;SDS011;5753;54.402;10.220;2023-10-19T11:35:30;13.10;;;7.50;;
11394;SDS011;5753;54.402;10.220;2023-10-19T11:37:59;12.48;;;6.22;;
11394;SDS011;5753;54.402;10.220;2023-10-19T11:40:27;8.63;;;4.55;;
11394;SDS011;5753;54.402;10.220;2023-10-19T11:42:54;17.15;;;6.50;;
11394;SDS011;5753;54.402;10.220;2023-10-19T11:45:25;8.98;;;5.80;;
11394;SDS011;5753;54.402;10.220;2023-10-19T11:47:52;14.75;;;6.20;;
11394;SDS011;5753;54.402;10.220;2023-10-19T11:50:18;10.60;;;5.90;;
11394;SDS011;5753;54.402;10.220;2023-10-19T11:52:45;6.85;;;4.47;;
11394;SDS011;5753;54.402;10.220;2023-10-19T11:55:12;7.82;;;7.05;;
11394;SDS011;5753;54.402;10.220;2023-10-19T11:57:44;8.73;;;5.90;;
11394;SDS011;5753;54.402;10.220;2023-10-19T12:00:10;14.93;;;7.13;;
11394;SDS011;5753;54.402;10.220;2023-10-19T12:02:46;10.68;;;7.32;;
11394;SDS011;5753;54.402;10.220;2023-10-19T12:05:13;7.00;;;5.55;;
11394;SDS011;5753;54.402;10.220;2023-10-19T12:07:39;11.07;;;7.35;;
11394;SDS011;5753;54.402;10.220;2023-10-19T12:10:06;7.03;;;5.38;;
11394;SDS011;5753;54.402;10.220;2023-10-19T12:12:34;14.23;;;5.78;;
11394;SDS011;5753;54.402;10.220;2023-10-19T12:15:02;19.35;;;6.65;;
11394;SDS011;5753;54.402;10.220;2023-10-19T12:17:30;12.38;;;5.85;;
11394;SDS011;5753;54.402;10.220;2023-10-19T12:19:56;13.30;;;7.88;;
11394;SDS011;5753;54.402;10.220;2023-10-19T12:22:23;8.82;;;5.93;;
11394;SDS011;5753;54.402;10.220;2023-10-19T12:24:53;9.40;;;5.32;;
11394;SDS011;5753;54.402;10.220;2023-10-19T12:27:20;7.45;;;6.63;;
11394;SDS011;5753;54.402;10.220;2023-10-19T12:29:46;13.45;;;7.85;;
11394;SDS011;5753;54.402;10.220;2023-10-19T12:32:12;17.30;;;7.40;;
11394;SDS011;5753;54.402;10.220;2023-10-19T12:34:40;7.97;;;6.03;;
11394;SDS011;5753;54.402;10.220;2023-10-19T12:37:06;12.13;;;6.65;;
11394;SDS011;5753;54.402;10.220;2023-10-19T12:39:35;18.00;;;10.55;;
11394;SDS011;5753;54.402;10.220;2023-10-19T12:42:03;11.40;;;7.93;;
11394;SDS011;5753;54.402;10.220;2023-10-19T12:44:29;9.25;;;7.70;;
11394;SDS011;5753;54.402;10.220;2023-10-19T12:47:03;12.95;;;7.28;;
11394;SDS011;5753;54.402;10.220;2023-10-19T12:49:34;18.73;;;8.85;;
11394;SDS011;5753;54.402;10.220;2023-10-19T12:52:01;13.88;;;7.78;;
11394;SDS011;5753;54.402;10.220;2023-10-19T12:54:28;18.15;;;6.85;;
11394;SDS011;5753;54.402;10.220;2023-10-19T12:56:55;19.35;;;7.22;;
11394;SDS011;5753;54.402;10.220;2023-10-19T12:59:21;19.40;;;5.68;;
11394;SDS011;5753;54.402;10.220;2023-10-19T13:01:47;15.43;;;6.28;;
11394;SDS011;5753;54.402;10.220;2023-10-19T13:04:17;14.32;;;6.97;;
11394;SDS011;5753;54.402;10.220;2023-10-19T13:06:44;14.15;;;7.40;;
11394;SDS011;5753;54.402;10.220;2023-10-19T13:09:12;9.73;;;5.50;;
11394;SDS011;5753;54.402;10.220;2023-10-19T13:11:40;16.17;;;7.85;;
11394;SDS011;5753;54.402;10.220;2023-10-19T13:14:10;7.55;;;6.32;;
11394;SDS011;5753;54.402;10.220;2023-10-19T13:16:37;12.00;;;7.45;;
11394;SDS011;5753;54.402;10.220;2023-10-19T13:19:03;10.82;;;4.95;;
11394;SDS011;5753;54.402;10.220;2023-10-19T13:21:38;10.48;;;6.38;;
11394;SDS011;5753;54.402;10.220;2023-10-19T13:24:07;10.00;;;7.90;;
11394;SDS011;5753;54.402;10.220;2023-10-19T13:26:33;13.10;;;7.10;;
11394;SDS011;5753;54.402;10.220;2023-10-19T13:29:00;10.85;;;6.35;;
11394;SDS011;5753;54.402;10.220;2023-10-19T13:31:27;8.38;;;6.05;;
11394;SDS011;5753;54.402;10.220;2023-10-19T13:33:53;14.32;;;7.25;;
11394;SDS011;5753;54.402;10.220;2023-10-19T13:36:19;13.55;;;7.80;;
11394;SDS011;5753;54.402;10.220;2023-10-19T13:38:46;12.85;;;5.53;;
11394;SDS011;5753;54.402;10.220;2023-10-19T13:41:12;8.27;;;5.43;;
11394;SDS011;5753;54.402;10.220;2023-10-19T13:43:39;10.30;;;6.18;;
11394;SDS011;5753;54.402;10.220;2023-10-19T13:46:07;14.80;;;7.78;;
11394;SDS011;5753;54.402;10.220;2023-10-19T13:48:33;11.57;;;6.53;;
11394;SDS011;5753;54.402;10.220;2023-10-19T13:50:59;12.73;;;6.25;;
11394;SDS011;5753;54.402;10.220;2023-10-19T13:53:26;8.60;;;5.88;;
11394;SDS011;5753;54.402;10.220;2023-10-19T13:55:52;8.32;;;6.90;;
11394;SDS011;5753;54.402;10.220;2023-10-19T13:58:18;9.55;;;6.13;;
11394;SDS011;5753;54.402;10.220;2023-10-19T14:00:44;12.48;;;7.45;;
11394;SDS011;5753;54.402;10.220;2023-10-19T14:03:12;6.07;;;4.93;;
11394;SDS011;5753;54.402;10.220;2023-10-19T14:05:39;10.63;;;7.55;;
11394;SDS011;5753;54.402;10.220;2023-10-19T14:08:13;8.85;;;6.68;;
11394;SDS011;5753;54.402;10.220;2023-10-19T14:10:40;6.80;;;5.55;;
11394;SDS011;5753;54.402;10.220;2023-10-19T14:13:09;26.10;;;8.90;;
11394;SDS011;5753;54.402;10.220;2023-10-19T14:15:39;7.15;;;5.30;;
11394;SDS011;5753;54.402;10.220;2023-10-19T14:18:07;8.25;;;5.97;;
11394;SDS011;5753;54.402;10.220;2023-10-19T14:20:34;6.85;;;5.55;;
11394;SDS011;5753;54.402;10.220;2023-10-19T14:23:03;9.70;;;6.70;;
11394;SDS011;5753;54.402;10.220;2023-10-19T14:25:29;11.70;;;6.88;;
11394;SDS011;5753;54.402;10.220;2023-10-19T14:27:56;9.60;;;6.68;;
11394;SDS011;5753;54.402;10.220;2023-10-19T14:30:26;13.13;;;8.55;;
11394;SDS011;5753;54.402;10.220;2023-10-19T14:32:56;7.15;;;5.35;;
11394;SDS011;5753;54.402;10.220;2023-10-19T14:35:23;9.25;;;6.47;;
11394;SDS011;5753;54.402;10.220;2023-10-19T14:37:53;7.80;;;6.78;;
11394;SDS011;5753;54.402;10.220;2023-10-19T14:40:23;11.05;;;6.90;;
11394;SDS011;5753;54.402;10.220;2023-10-19T14:42:54;9.07;;;6.72;;
11394;SDS011;5753;54.402;10.220;2023-10-19T14:45:23;9.35;;;6.53;;
11394;SDS011;5753;54.402;10.220;2023-10-19T14:47:53;17.27;;;8.35;;
11394;SDS011;5753;54.402;10.220;2023-10-19T14:50:21;21.50;;;8.75;;
11394;SDS011;5753;54.402;10.220;2023-10-19T14:52:48;12.25;;;8.13;;
11394;SDS011;5753;54.402;10.220;2023-10-19T14:55:16;18.63;;;8.55;;
11394;SDS011;5753;54.402;10.220;2023-10-19T14:57:43;21.17;;;8.75;;
11394;SDS011;5753;54.402;10.220;2023-10-19T15:00:13;13.02;;;8.05;;
11394;SDS011;5753;54.402;10.220;2023-10-19T15:02:49;9.70;;;6.57;;
11394;SDS011;5753;54.402;10.220;2023-10-19T15:05:19;10.15;;;8.43;;
11394;SDS011;5753;54.402;10.220;2023-10-19T15:07:46;8.93;;;6.85;;
11394;SDS011;5753;54.402;10.220;2023-10-19T15:10:16;15.75;;;7.82;;
11394;SDS011;5753;54.402;10.220;2023-10-19T15:12:43;9.73;;;8.60;;
11394;SDS011;5753;54.402;10.220;2023-10-19T15:15:10;10.25;;;6.78;;
11394;SDS011;5753;54.402;10.220;2023-10-19T15:17:36;12.25;;;7.03;;
11394;SDS011;5753;54.402;10.220;2023-10-19T15:20:08;10.57;;;7.25;;
11394;SDS011;5753;54.402;10.220;2023-10-19T15:22:35;10.02;;;6.28;;
11394;SDS011;5753;54.402;10.220;2023-10-19T15:25:02;11.25;;;6.63;;
11394;SDS011;5753;54.402;10.220;2023-10-19T15:27:30;9.43;;;6.78;;
11394;SDS011;5753;54.402;10.220;2023-10-19T15:29:56;10.98;;;6.80;;
11394;SDS011;5753;54.402;10.220;2023-10-19T15:32:22;11.48;;;7.38;;
11394;SDS011;5753;54.402;10.220;2023-10-19T15:34:52;13.05;;;5.88;;